KSMF/SMF METAR and TAF weather

Enter ICAO airport designator
Station Type Date Time Source
KSMF METAR 2019/02/16 02:53 UTC NOAA

KSMF 160253Z 18008KT 10SM FEW080 07/03 A3001 RMK AO2 SLP161 60000 T00720033 53009


Station Type Date Time Source
KSMF Decoded METAR 2019/02/16 02:53 UTC NOAA

SACRAMENTO INTERNATIONAL AIRPORT, CA, United States (KSMF) 38-42N 121-36W 6M
Feb 15, 2019 - 09:53 PM EST / 2019.02.16 0253 UTC
Wind: from the S (180 degrees) at 9 MPH (8 KT):0
Visibility: 10 mile(s):0
Sky conditions: mostly clear
Temperature: 45.0 F (7.2 C)
Dew Point: 37.9 F (3.3 C)
Relative Humidity: 76%
Pressure (altimeter): 30.01 in. Hg (1016 hPa)
Pressure tendency: 0.03 inches (0.9 hPa) higher than three hours ago
ob: KSMF 160253Z 18008KT 10SM FEW080 07/03 A3001 RMK AO2 SLP161 60000 T00720033 53009
cycle: 3

Station Type Date Time Source
KSMF TAF 2019/02/15 18:34 UTC NOAA

TAF KSMF 151732Z 1518/1618 22010KT P6SM -SHRA BKN040
FM160600 17015KT P6SM -SHRA OVC025


Example: see airport list